Time;durP1;ratioP1;P1;durP2;ratioP2;P2;SDS_P1;SDS_P2;PMS_P1;PMS_P2;Temp;Humidity;BMP_temperature;BMP_pressure;BME280_temperature;BME280_humidity;BME280_pressure;Samples;Min_cycle;Max_cycle;Signal;HPM_P1;HPM_P2
2022/03/09 00:00:46;;;;;;;12.02;6.57;;;;;;;;;;5053733;28;20092;-74
2022/03/09 00:03:12;;;;;;;11.80;5.57;;;;;;;;;;5053561;28;20021;-71
2022/03/09 00:05:38;;;;;;;10.27;5.88;;;;;;;;;;5053615;28;20025;-74
2022/03/09 00:08:04;;;;;;;12.05;5.85;;;;;;;;;;5047002;28;20029;-71
2022/03/09 00:10:30;;;;;;;10.30;6.47;;;;;;;;;;5033582;28;20033;-73
2022/03/09 00:12:57;;;;;;;13.40;6.38;;;;;;;;;;5033730;28;20077;-70
2022/03/09 00:15:23;;;;;;;10.77;5.45;;;;;;;;;;5033354;28;20025;-67
2022/03/09 00:17:49;;;;;;;16.45;6.47;;;;;;;;;;5033111;28;20026;-64
2022/03/09 00:20:15;;;;;;;9.88;5.18;;;;;;;;;;5033549;28;20025;-73
2022/03/09 00:22:41;;;;;;;10.38;5.43;;;;;;;;;;5033377;28;20025;-71
2022/03/09 00:25:08;;;;;;;9.95;5.40;;;;;;;;;;5033418;28;20025;-71
2022/03/09 00:27:34;;;;;;;10.18;5.75;;;;;;;;;;5033386;28;20021;-73
2022/03/09 00:30:01;;;;;;;11.02;6.00;;;;;;;;;;5033359;28;20038;-69
2022/03/09 00:32:27;;;;;;;10.65;6.22;;;;;;;;;;5033433;28;20097;-73
2022/03/09 00:34:53;;;;;;;11.05;5.45;;;;;;;;;;5033423;28;20026;-72
2022/03/09 00:37:20;;;;;;;8.45;4.88;;;;;;;;;;5033141;28;20049;-73
2022/03/09 00:39:46;;;;;;;9.57;5.63;;;;;;;;;;5032726;28;20451;-72
2022/03/09 00:42:12;;;;;;;11.07;5.55;;;;;;;;;;5033104;28;20025;-75
2022/03/09 00:44:38;;;;;;;8.90;5.28;;;;;;;;;;5032992;28;20030;-70
2022/03/09 00:47:04;;;;;;;10.07;4.80;;;;;;;;;;5032774;28;20029;-71
2022/03/09 00:49:30;;;;;;;8.95;5.30;;;;;;;;;;5032650;28;20128;-71
2022/03/09 00:51:56;;;;;;;10.13;5.32;;;;;;;;;;5032661;28;20029;-71
2022/03/09 00:54:22;;;;;;;9.18;5.45;;;;;;;;;;5033204;28;20461;-70
2022/03/09 00:56:48;;;;;;;9.23;4.97;;;;;;;;;;5032697;28;20014;-69
2022/03/09 00:59:15;;;;;;;9.68;5.72;;;;;;;;;;5032809;28;20673;-72
2022/03/09 01:01:41;;;;;;;9.60;5.45;;;;;;;;;;5047997;28;20063;-72
2022/03/09 01:04:07;;;;;;;7.70;4.90;;;;;;;;;;5032977;28;20445;-71
2022/03/09 01:06:33;;;;;;;12.18;5.20;;;;;;;;;;5031996;28;20087;-70
2022/03/09 01:09:01;;;;;;;7.85;5.00;;;;;;;;;;5032628;28;20029;-66
2022/03/09 01:11:27;;;;;;;11.80;5.18;;;;;;;;;;5032832;28;20022;-69
2022/03/09 01:13:53;;;;;;;8.18;5.00;;;;;;;;;;5032636;28;20017;-71
2022/03/09 01:16:19;;;;;;;9.23;5.30;;;;;;;;;;5032377;28;20060;-69
2022/03/09 01:18:45;;;;;;;9.10;5.35;;;;;;;;;;5032460;28;20033;-69
2022/03/09 01:21:11;;;;;;;8.38;5.55;;;;;;;;;;5032463;28;20140;-67
2022/03/09 01:23:37;;;;;;;10.43;4.97;;;;;;;;;;5032528;28;20034;-66
2022/03/09 01:26:04;;;;;;;10.32;5.40;;;;;;;;;;5032424;28;20105;-68
2022/03/09 01:28:30;;;;;;;10.85;5.78;;;;;;;;;;5032261;28;20029;-72
2022/03/09 01:30:56;;;;;;;9.82;5.35;;;;;;;;;;5032541;28;20515;-72
2022/03/09 01:33:22;;;;;;;12.40;5.25;;;;;;;;;;5047536;28;20026;-73
2022/03/09 01:35:48;;;;;;;8.18;5.30;;;;;;;;;;5032485;28;20080;-69
2022/03/09 01:38:14;;;;;;;8.43;5.45;;;;;;;;;;5032120;28;20032;-73
2022/03/09 01:40:40;;;;;;;9.20;5.38;;;;;;;;;;5031983;28;20046;-73
2022/03/09 01:43:06;;;;;;;11.52;5.43;;;;;;;;;;5032284;28;20029;-68
2022/03/09 01:45:32;;;;;;;10.13;5.80;;;;;;;;;;5032058;28;20060;-73
2022/03/09 01:47:58;;;;;;;9.25;5.60;;;;;;;;;;5032007;28;20022;-73
2022/03/09 01:50:24;;;;;;;9.48;5.53;;;;;;;;;;5032241;28;20040;-74
2022/03/09 01:52:50;;;;;;;8.73;5.28;;;;;;;;;;5032249;28;20018;-74
2022/03/09 01:55:16;;;;;;;9.68;5.85;;;;;;;;;;5047431;28;20380;-73
2022/03/09 01:57:42;;;;;;;10.18;5.13;;;;;;;;;;5031984;28;20021;-74
2022/03/09 02:00:09;;;;;;;10.30;5.97;;;;;;;;;;5031975;28;20037;-75
2022/03/09 02:02:35;;;;;;;9.23;5.63;;;;;;;;;;5032026;28;20100;-67
2022/03/09 02:05:01;;;;;;;13.50;6.30;;;;;;;;;;5032041;28;20026;-68
2022/03/09 02:10:12;;;;;;;9.35;5.45;;;;;;;;;;5051783;28;20040;-74
2022/03/09 02:12:39;;;;;;;7.85;5.30;;;;;;;;;;5038663;28;20022;-72
2022/03/09 02:15:05;;;;;;;13.10;5.65;;;;;;;;;;5031461;28;20064;-72
2022/03/09 02:17:31;;;;;;;8.63;5.53;;;;;;;;;;5047240;28;20014;-72
2022/03/09 02:19:58;;;;;;;9.38;5.43;;;;;;;;;;5035716;28;20033;-69
2022/03/09 02:22:32;;;;;;;8.75;5.10;;;;;;;;;;5035736;28;20629;-71
2022/03/09 02:24:58;;;;;;;9.60;5.80;;;;;;;;;;5035689;28;20417;-71
2022/03/09 02:27:25;;;;;;;10.68;5.72;;;;;;;;;;5035715;28;20049;-72
2022/03/09 02:29:51;;;;;;;9.68;5.40;;;;;;;;;;5035598;28;20030;-71
2022/03/09 02:32:17;;;;;;;8.60;5.15;;;;;;;;;;5035536;28;20380;-71
2022/03/09 02:34:44;;;;;;;8.27;5.00;;;;;;;;;;5035606;28;20075;-75
2022/03/09 02:37:10;;;;;;;9.02;5.13;;;;;;;;;;5035552;28;20053;-72
2022/03/09 02:39:37;;;;;;;9.02;5.40;;;;;;;;;;5035031;28;20053;-71
2022/03/09 02:42:03;;;;;;;9.00;5.13;;;;;;;;;;5035599;28;20026;-73
2022/03/09 02:44:29;;;;;;;8.38;4.80;;;;;;;;;;5035432;28;20022;-73
2022/03/09 02:46:56;;;;;;;8.68;5.40;;;;;;;;;;5035198;28;20022;-72
2022/03/09 02:49:22;;;;;;;8.65;5.05;;;;;;;;;;5035197;28;20511;-68
2022/03/09 02:51:48;;;;;;;11.32;5.30;;;;;;;;;;5035340;28;20029;-73
2022/03/09 02:54:14;;;;;;;9.52;4.85;;;;;;;;;;5035257;28;20104;-70
2022/03/09 02:56:40;;;;;;;7.70;4.68;;;;;;;;;;5035073;28;20014;-72
2022/03/09 02:59:06;;;;;;;8.65;5.15;;;;;;;;;;5035079;28;20071;-75
2022/03/09 03:01:33;;;;;;;7.82;4.75;;;;;;;;;;5035123;28;20025;-74
2022/03/09 03:03:59;;;;;;;7.95;4.90;;;;;;;;;;5035068;28;20029;-73
2022/03/09 03:06:25;;;;;;;8.60;4.65;;;;;;;;;;5050383;28;20073;-75
2022/03/09 03:08:51;;;;;;;8.05;4.60;;;;;;;;;;5034573;28;20030;-75
2022/03/09 03:11:18;;;;;;;8.77;4.80;;;;;;;;;;5034740;28;20107;-72
2022/03/09 03:13:45;;;;;;;9.27;5.05;;;;;;;;;;5034639;28;20477;-73
2022/03/09 03:16:11;;;;;;;9.07;4.80;;;;;;;;;;5034574;28;20025;-70
2022/03/09 03:18:37;;;;;;;8.90;5.15;;;;;;;;;;5034672;28;20072;-71
2022/03/09 03:21:04;;;;;;;9.65;5.07;;;;;;;;;;5034771;28;20025;-70
2022/03/09 03:23:31;;;;;;;7.85;4.90;;;;;;;;;;5050061;28;20049;-69
2022/03/09 03:25:57;;;;;;;7.60;4.43;;;;;;;;;;5034774;28;20053;-69
2022/03/09 03:28:23;;;;;;;9.40;4.70;;;;;;;;;;5034640;28;20021;-64
2022/03/09 03:30:50;;;;;;;8.32;4.97;;;;;;;;;;5033486;28;20473;-72
2022/03/09 03:33:16;;;;;;;8.30;4.43;;;;;;;;;;5034299;28;20025;-71
2022/03/09 03:35:43;;;;;;;7.95;4.70;;;;;;;;;;5034492;28;20511;-71
2022/03/09 03:38:10;;;;;;;9.15;4.35;;;;;;;;;;5034436;28;20064;-67
2022/03/09 03:40:36;;;;;;;7.93;4.65;;;;;;;;;;5049720;28;20069;-66
2022/03/09 03:43:02;;;;;;;8.75;4.45;;;;;;;;;;5034273;28;20033;-66
2022/03/09 03:45:28;;;;;;;7.50;4.35;;;;;;;;;;5034358;28;20526;-69
2022/03/09 03:47:54;;;;;;;8.50;5.10;;;;;;;;;;5034084;28;20374;-69
2022/03/09 03:50:21;;;;;;;6.68;4.18;;;;;;;;;;5034072;28;20037;-71
2022/03/09 03:52:47;;;;;;;8.75;5.40;;;;;;;;;;5034170;28;20021;-71
2022/03/09 03:55:13;;;;;;;6.85;4.03;;;;;;;;;;5034110;28;20101;-67
2022/03/09 03:57:39;;;;;;;9.10;4.28;;;;;;;;;;5034309;28;20466;-73
2022/03/09 04:00:05;;;;;;;8.27;4.68;;;;;;;;;;5034089;28;20049;-63
2022/03/09 04:02:31;;;;;;;8.10;4.78;;;;;;;;;;5033904;28;20021;-74
2022/03/09 04:04:57;;;;;;;10.00;4.88;;;;;;;;;;5033931;28;20392;-74
2022/03/09 04:07:24;;;;;;;8.43;4.53;;;;;;;;;;5033895;28;20021;-73
2022/03/09 04:09:50;;;;;;;9.07;5.15;;;;;;;;;;5048985;28;20037;-72
2022/03/09 04:12:16;;;;;;;9.15;4.70;;;;;;;;;;5033250;28;20064;-71
2022/03/09 04:14:42;;;;;;;10.23;4.45;;;;;;;;;;5033761;28;20072;-71
2022/03/09 04:17:08;;;;;;;7.97;4.85;;;;;;;;;;5033614;28;20056;-73
2022/03/09 04:19:34;;;;;;;9.13;4.57;;;;;;;;;;5033492;28;20496;-73
2022/03/09 04:22:00;;;;;;;7.25;4.57;;;;;;;;;;5033558;28;20439;-70
2022/03/09 04:24:26;;;;;;;9.55;4.88;;;;;;;;;;5033487;28;20067;-73
2022/03/09 04:26:52;;;;;;;9.27;4.70;;;;;;;;;;5033418;28;20021;-70
2022/03/09 04:29:19;;;;;;;10.40;4.63;;;;;;;;;;5033475;28;20029;-67
2022/03/09 04:31:45;;;;;;;8.25;4.07;;;;;;;;;;5033406;28;20029;-65
2022/03/09 04:34:11;;;;;;;9.13;4.70;;;;;;;;;;5033234;28;20035;-71
2022/03/09 04:36:37;;;;;;;7.72;4.32;;;;;;;;;;5048693;28;20034;-71
2022/03/09 04:39:04;;;;;;;8.32;4.03;;;;;;;;;;5033179;28;20518;-70
2022/03/09 04:41:30;;;;;;;8.50;4.45;;;;;;;;;;5048524;28;20041;-70
2022/03/09 04:43:56;;;;;;;7.65;4.10;;;;;;;;;;5033031;28;20056;-71
2022/03/09 04:46:23;;;;;;;13.70;4.80;;;;;;;;;;5032885;28;20481;-73
2022/03/09 04:48:49;;;;;;;9.65;4.63;;;;;;;;;;5032775;28;20087;-73
2022/03/09 04:51:15;;;;;;;7.25;4.15;;;;;;;;;;5033172;28;20033;-66
2022/03/09 04:53:42;;;;;;;11.73;4.93;;;;;;;;;;5033004;28;20477;-74
2022/03/09 04:56:08;;;;;;;8.50;4.53;;;;;;;;;;5033089;28;20029;-72
2022/03/09 04:58:34;;;;;;;9.02;4.80;;;;;;;;;;5033024;28;20100;-72
2022/03/09 05:01:00;;;;;;;9.35;4.35;;;;;;;;;;5035646;28;20030;-72
2022/03/09 05:03:26;;;;;;;7.95;4.50;;;;;;;;;;5052749;28;20021;-65
2022/03/09 05:05:52;;;;;;;7.68;4.20;;;;;;;;;;5068212;28;20025;-69
2022/03/09 05:08:18;;;;;;;7.68;3.85;;;;;;;;;;5052675;28;20025;-73
2022/03/09 05:10:44;;;;;;;8.18;4.13;;;;;;;;;;5052394;28;20226;-72
2022/03/09 05:13:10;;;;;;;8.38;4.63;;;;;;;;;;5052584;28;20059;-72
2022/03/09 05:15:36;;;;;;;6.72;4.32;;;;;;;;;;5067587;28;20040;-72
2022/03/09 05:18:02;;;;;;;7.13;4.00;;;;;;;;;;5052568;28;20025;-68
2022/03/09 05:20:28;;;;;;;6.45;3.55;;;;;;;;;;5052530;28;20290;-66
2022/03/09 05:22:54;;;;;;;8.52;4.72;;;;;;;;;;5052606;28;20036;-71
2022/03/09 05:25:22;;;;;;;7.85;4.47;;;;;;;;;;5052432;28;20095;-70
2022/03/09 05:27:48;;;;;;;8.93;4.28;;;;;;;;;;5052272;28;20021;-72
2022/03/09 05:30:15;;;;;;;6.97;3.78;;;;;;;;;;5052129;28;20041;-72
2022/03/09 05:32:41;;;;;;;7.93;4.55;;;;;;;;;;5052186;28;20035;-72
2022/03/09 05:35:09;;;;;;;9.73;4.00;;;;;;;;;;5052311;28;20119;-70
2022/03/09 05:37:45;;;;;;;8.27;4.05;;;;;;;;;;5067537;28;20053;-68
2022/03/09 05:40:11;;;;;;;10.25;4.65;;;;;;;;;;5051968;28;20400;-69
2022/03/09 05:42:37;;;;;;;7.97;4.20;;;;;;;;;;5067541;28;20499;-65
2022/03/09 05:45:05;;;;;;;16.35;4.53;;;;;;;;;;5052005;28;20028;-71
2022/03/09 05:47:31;;;;;;;8.90;3.88;;;;;;;;;;5052011;28;20056;-72
2022/03/09 05:49:57;;;;;;;7.82;4.25;;;;;;;;;;5052133;28;20033;-71
2022/03/09 05:52:23;;;;;;;10.30;3.70;;;;;;;;;;5051714;28;20017;-68
2022/03/09 05:54:49;;;;;;;7.63;3.78;;;;;;;;;;5051974;28;20029;-66
2022/03/09 05:57:22;;;;;;;10.40;4.47;;;;;;;;;;5067255;28;20029;-69
2022/03/09 05:59:49;;;;;;;7.55;4.30;;;;;;;;;;5051907;28;20025;-65
2022/03/09 06:02:15;;;;;;;10.80;4.22;;;;;;;;;;5051922;28;20371;-65
2022/03/09 06:04:45;;;;;;;11.75;4.18;;;;;;;;;;5050845;28;20033;-62
2022/03/09 06:07:11;;;;;;;10.15;4.60;;;;;;;;;;5051907;28;20028;-69
2022/03/09 06:09:37;;;;;;;10.13;4.00;;;;;;;;;;5051842;28;20033;-61
2022/03/09 06:12:03;;;;;;;13.20;4.55;;;;;;;;;;5050612;28;20028;-68
2022/03/09 06:14:30;;;;;;;10.88;5.00;;;;;;;;;;5037524;28;20388;-60
2022/03/09 06:16:56;;;;;;;11.73;4.18;;;;;;;;;;5050850;28;20612;-61
2022/03/09 06:19:22;;;;;;;13.43;4.90;;;;;;;;;;5058653;28;20026;-61
2022/03/09 06:21:48;;;;;;;11.32;4.63;;;;;;;;;;5031535;28;20048;-64
2022/03/09 06:24:16;;;;;;;12.32;5.13;;;;;;;;;;5031315;28;20049;-60
2022/03/09 06:26:43;;;;;;;10.77;4.43;;;;;;;;;;5031270;28;20033;-62
2022/03/09 06:29:10;;;;;;;7.93;4.60;;;;;;;;;;5031013;28;20075;-60
2022/03/09 06:31:36;;;;;;;8.63;4.63;;;;;;;;;;5038932;28;20084;-62
2022/03/09 06:34:02;;;;;;;11.07;5.22;;;;;;;;;;5050793;28;20040;-61
2022/03/09 06:36:28;;;;;;;10.10;4.88;;;;;;;;;;5050596;28;20051;-64
2022/03/09 06:38:54;;;;;;;12.27;5.00;;;;;;;;;;5050719;28;20041;-60
2022/03/09 06:41:21;;;;;;;10.15;4.72;;;;;;;;;;5050787;28;20598;-63
2022/03/09 06:43:47;;;;;;;9.88;4.63;;;;;;;;;;5050639;28;20025;-70
2022/03/09 06:46:13;;;;;;;8.55;4.20;;;;;;;;;;5047173;28;20029;-61
2022/03/09 06:48:39;;;;;;;10.25;4.45;;;;;;;;;;5031071;28;20479;-72
2022/03/09 06:51:05;;;;;;;11.90;4.60;;;;;;;;;;5055234;28;20033;-60
2022/03/09 06:53:31;;;;;;;8.60;4.85;;;;;;;;;;5050360;28;20025;-68
2022/03/09 06:55:57;;;;;;;11.20;4.70;;;;;;;;;;5050858;28;20155;-62
2022/03/09 06:58:23;;;;;;;8.00;4.70;;;;;;;;;;5051030;28;20468;-60
2022/03/09 07:00:50;;;;;;;10.68;4.97;;;;;;;;;;5050995;28;20133;-62
2022/03/09 07:03:16;;;;;;;10.27;4.10;;;;;;;;;;5051072;28;20494;-73
2022/03/09 07:05:42;;;;;;;10.30;4.97;;;;;;;;;;5053910;28;20021;-61
2022/03/09 07:08:08;;;;;;;10.82;4.90;;;;;;;;;;5054582;28;20025;-66
2022/03/09 07:10:34;;;;;;;8.75;4.47;;;;;;;;;;5053398;28;20068;-61
2022/03/09 07:13:00;;;;;;;8.38;4.43;;;;;;;;;;5054667;28;20035;-61
2022/03/09 07:15:26;;;;;;;8.60;4.72;;;;;;;;;;5054528;28;20037;-71
2022/03/09 07:17:52;;;;;;;9.95;5.30;;;;;;;;;;5054612;28;20103;-60
2022/03/09 07:20:19;;;;;;;11.43;5.38;;;;;;;;;;5054699;28;20383;-65
2022/03/09 07:22:45;;;;;;;11.05;5.05;;;;;;;;;;5054602;28;20017;-61
2022/03/09 07:25:12;;;;;;;9.82;4.75;;;;;;;;;;5054305;28;20025;-65
2022/03/09 07:27:39;;;;;;;9.80;5.38;;;;;;;;;;5054174;28;20519;-61
2022/03/09 07:30:05;;;;;;;9.38;5.00;;;;;;;;;;5054207;28;20396;-60
2022/03/09 07:32:31;;;;;;;10.68;5.25;;;;;;;;;;5054165;28;20108;-64
2022/03/09 07:34:57;;;;;;;9.25;4.90;;;;;;;;;;5054380;28;20083;-64
2022/03/09 07:37:23;;;;;;;10.35;5.22;;;;;;;;;;5054144;28;20142;-64
2022/03/09 07:39:49;;;;;;;10.30;5.13;;;;;;;;;;5053944;28;20512;-60
2022/03/09 07:42:16;;;;;;;9.88;5.15;;;;;;;;;;5054019;28;20025;-69
2022/03/09 07:44:42;;;;;;;8.35;4.63;;;;;;;;;;5053973;28;20025;-61
2022/03/09 07:47:09;;;;;;;10.18;5.25;;;;;;;;;;5053652;28;20499;-61
2022/03/09 07:49:37;;;;;;;7.45;4.78;;;;;;;;;;5053890;28;20494;-60
2022/03/09 07:52:04;;;;;;;10.32;5.25;;;;;;;;;;5053997;28;20059;-61
2022/03/09 07:54:30;;;;;;;9.25;5.25;;;;;;;;;;5052500;28;20020;-61
2022/03/09 07:56:56;;;;;;;8.50;5.10;;;;;;;;;;5053700;28;20058;-63
2022/03/09 07:59:22;;;;;;;8.60;4.93;;;;;;;;;;5053771;28;20040;-63
2022/03/09 08:01:52;;;;;;;13.32;6.20;;;;;;;;;;5053853;28;20017;-62
2022/03/09 08:04:19;;;;;;;8.70;5.07;;;;;;;;;;5053526;28;20021;-60
2022/03/09 08:06:47;;;;;;;9.07;5.00;;;;;;;;;;5053546;28;20024;-60
2022/03/09 08:09:13;;;;;;;9.45;4.72;;;;;;;;;;5053812;28;20444;-62
2022/03/09 08:11:39;;;;;;;9.10;4.85;;;;;;;;;;5053516;28;20021;-65
2022/03/09 08:14:05;;;;;;;9.90;5.45;;;;;;;;;;5052079;28;20029;-70
2022/03/09 08:16:31;;;;;;;9.40;5.20;;;;;;;;;;5051779;28;20080;-61
2022/03/09 08:18:57;;;;;;;8.85;4.95;;;;;;;;;;5051912;28;20017;-60
2022/03/09 08:21:23;;;;;;;9.50;5.35;;;;;;;;;;5053076;28;20028;-71
2022/03/09 08:23:49;;;;;;;10.02;5.25;;;;;;;;;;5053291;28;20028;-69
2022/03/09 08:26:15;;;;;;;9.35;5.68;;;;;;;;;;5053092;28;20025;-67
2022/03/09 08:28:42;;;;;;;7.90;4.93;;;;;;;;;;5052748;28;20471;-66
2022/03/09 08:31:08;;;;;;;9.15;4.75;;;;;;;;;;5068499;28;20039;-68
2022/03/09 08:33:34;;;;;;;10.60;5.63;;;;;;;;;;5053255;28;20083;-60
2022/03/09 08:36:00;;;;;;;10.18;5.22;;;;;;;;;;5053025;28;20028;-72
2022/03/09 08:38:26;;;;;;;9.75;5.72;;;;;;;;;;5052238;28;20017;-65
2022/03/09 08:40:53;;;;;;;11.15;5.97;;;;;;;;;;5051454;28;20040;-65
2022/03/09 08:43:19;;;;;;;11.90;5.82;;;;;;;;;;5053084;28;20029;-66
2022/03/09 08:45:46;;;;;;;9.30;4.97;;;;;;;;;;5052861;28;20059;-68
2022/03/09 08:48:12;;;;;;;10.57;5.00;;;;;;;;;;5050364;28;20025;-64
2022/03/09 08:50:38;;;;;;;7.88;4.45;;;;;;;;;;5034748;28;20045;-67
2022/03/09 08:53:04;;;;;;;10.50;5.28;;;;;;;;;;5052540;28;20021;-64
2022/03/09 08:55:31;;;;;;;7.05;4.40;;;;;;;;;;5042796;28;20024;-64
2022/03/09 08:57:57;;;;;;;11.40;4.75;;;;;;;;;;5047107;28;20479;-61
2022/03/09 09:00:23;;;;;;;8.10;4.88;;;;;;;;;;5048032;28;20473;-66
2022/03/09 09:02:49;;;;;;;9.40;4.57;;;;;;;;;;5051365;28;20063;-66
2022/03/09 09:05:15;;;;;;;13.05;5.00;;;;;;;;;;5051884;28;20028;-64
2022/03/09 09:07:41;;;;;;;8.68;4.47;;;;;;;;;;5050663;28;20009;-68
2022/03/09 09:10:08;;;;;;;10.52;4.75;;;;;;;;;;5051186;28;20041;-67
2022/03/09 09:12:34;;;;;;;9.52;4.57;;;;;;;;;;5051937;28;20033;-67
2022/03/09 09:15:00;;;;;;;9.82;5.13;;;;;;;;;;5051348;28;20029;-65
2022/03/09 09:17:26;;;;;;;8.32;4.20;;;;;;;;;;5050762;28;20054;-64
2022/03/09 09:19:52;;;;;;;7.55;4.40;;;;;;;;;;5051453;28;20051;-65
2022/03/09 09:22:18;;;;;;;7.95;4.25;;;;;;;;;;5050533;28;20440;-67
2022/03/09 09:24:45;;;;;;;7.18;4.18;;;;;;;;;;5051904;28;20029;-67
2022/03/09 09:27:11;;;;;;;7.65;3.80;;;;;;;;;;5051682;28;20456;-62
2022/03/09 09:29:37;;;;;;;9.02;4.30;;;;;;;;;;5051300;28;20064;-67
2022/03/09 09:32:03;;;;;;;8.20;4.20;;;;;;;;;;5051202;28;20025;-65
2022/03/09 09:34:29;;;;;;;8.55;4.07;;;;;;;;;;5050317;28;20021;-63
2022/03/09 09:36:55;;;;;;;7.47;3.72;;;;;;;;;;5051867;28;20434;-64
2022/03/09 09:39:22;;;;;;;6.97;3.72;;;;;;;;;;5050985;28;20037;-59
2022/03/09 09:41:51;;;;;;;7.22;3.95;;;;;;;;;;5048348;28;20029;-66
2022/03/09 09:44:17;;;;;;;7.15;4.10;;;;;;;;;;5052107;28;20020;-68
2022/03/09 09:46:44;;;;;;;8.27;3.70;;;;;;;;;;5052132;28;20147;-68
2022/03/09 09:49:11;;;;;;;13.48;5.20;;;;;;;;;;5050737;28;20040;-64
2022/03/09 09:51:37;;;;;;;18.23;4.50;;;;;;;;;;5049502;28;20033;-60
2022/03/09 09:54:04;;;;;;;10.60;4.20;;;;;;;;;;5047590;28;20052;-64
2022/03/09 09:56:30;;;;;;;11.55;3.78;;;;;;;;;;5034283;28;20104;-60
2022/03/09 09:58:56;;;;;;;11.07;3.95;;;;;;;;;;5043794;28;20039;-61
2022/03/09 10:01:22;;;;;;;8.57;3.92;;;;;;;;;;5052002;28;20021;-60
2022/03/09 10:03:48;;;;;;;6.90;3.55;;;;;;;;;;5050396;28;20395;-60
2022/03/09 10:06:14;;;;;;;9.02;3.90;;;;;;;;;;5051380;28;20025;-60
2022/03/09 10:08:40;;;;;;;10.38;3.60;;;;;;;;;;5051671;28;20100;-65
2022/03/09 10:11:06;;;;;;;6.07;3.67;;;;;;;;;;5050018;28;20025;-60
2022/03/09 10:13:38;;;;;;;9.32;3.67;;;;;;;;;;5051278;28;20028;-66
2022/03/09 10:16:15;;;;;;;6.95;3.80;;;;;;;;;;5051626;28;20070;-61
2022/03/09 10:18:48;;;;;;;14.07;4.28;;;;;;;;;;5050304;28;20028;-63
2022/03/09 10:21:17;;;;;;;9.63;4.50;;;;;;;;;;5051588;28;20021;-61
2022/03/09 10:23:55;;;;;;;7.78;4.20;;;;;;;;;;5051200;28;20131;-60
2022/03/09 10:26:25;;;;;;;8.73;4.00;;;;;;;;;;5041134;28;20527;-65
2022/03/09 10:28:55;;;;;;;7.57;3.80;;;;;;;;;;5051515;28;20080;-64
2022/03/09 10:31:30;;;;;;;7.78;3.90;;;;;;;;;;5051427;28;20060;-61
2022/03/09 10:34:07;;;;;;;10.73;3.95;;;;;;;;;;5050871;28;20017;-65
2022/03/09 10:36:33;;;;;;;7.53;4.00;;;;;;;;;;5051136;28;20025;-62
2022/03/09 10:39:11;;;;;;;7.45;3.58;;;;;;;;;;5052079;28;20021;-62
2022/03/09 10:41:37;;;;;;;7.03;3.33;;;;;;;;;;5055050;28;20043;-60
2022/03/09 10:44:04;;;;;;;18.52;3.45;;;;;;;;;;5039506;28;20030;-64
2022/03/09 10:46:40;;;;;;;5.57;3.17;;;;;;;;;;5053156;28;20051;-65
2022/03/09 10:49:07;;;;;;;5.40;3.03;;;;;;;;;;5054479;28;20029;-63
2022/03/09 10:51:38;;;;;;;6.47;3.20;;;;;;;;;;5054713;28;20029;-60
2022/03/09 10:54:06;;;;;;;6.65;3.45;;;;;;;;;;5054499;28;20025;-63
2022/03/09 10:56:33;;;;;;;8.10;3.60;;;;;;;;;;5054212;28;20052;-63
2022/03/09 10:59:10;;;;;;;10.27;4.30;;;;;;;;;;5053396;28;20028;-61
2022/03/09 11:01:37;;;;;;;7.13;3.60;;;;;;;;;;5050858;28;20009;-61
2022/03/09 11:04:12;;;;;;;7.60;3.50;;;;;;;;;;5053644;28;20044;-61
2022/03/09 11:06:42;;;;;;;7.88;3.60;;;;;;;;;;5051843;28;20033;-61
2022/03/09 11:09:09;;;;;;;6.72;3.42;;;;;;;;;;5053752;28;20159;-60
2022/03/09 11:11:38;;;;;;;6.97;3.40;;;;;;;;;;5053891;28;20021;-60
2022/03/09 11:14:04;;;;;;;7.13;3.90;;;;;;;;;;5053957;28;20379;-61
2022/03/09 11:16:31;;;;;;;8.40;3.67;;;;;;;;;;5053953;28;20017;-64
2022/03/09 11:18:57;;;;;;;8.57;4.00;;;;;;;;;;5052749;28;20114;-64
2022/03/09 11:21:24;;;;;;;5.93;3.50;;;;;;;;;;5053046;28;20024;-62
2022/03/09 11:23:50;;;;;;;7.13;3.80;;;;;;;;;;5053631;28;20108;-63
2022/03/09 11:26:37;;;;;;;7.22;3.35;;;;;;;;;;5054080;28;20029;-62
2022/03/09 11:29:05;;;;;;;7.95;3.53;;;;;;;;;;5053932;28;20093;-63
2022/03/09 11:31:53;;;;;;;6.00;3.15;;;;;;;;;;5052807;28;20020;-64
2022/03/09 11:34:31;;;;;;;7.57;3.38;;;;;;;;;;5053773;28;20017;-66
2022/03/09 11:36:59;;;;;;;6.97;3.88;;;;;;;;;;5053810;28;20032;-62
2022/03/09 11:39:25;;;;;;;7.90;3.88;;;;;;;;;;5054068;28;20047;-64
2022/03/09 11:42:11;;;;;;;6.10;3.60;;;;;;;;;;5053630;28;20071;-61
2022/03/09 11:44:39;;;;;;;8.25;3.63;;;;;;;;;;5053615;28;20035;-60
2022/03/09 11:47:07;;;;;;;8.23;4.13;;;;;;;;;;5053649;28;20013;-61
2022/03/09 11:49:34;;;;;;;7.45;3.60;;;;;;;;;;5053545;28;20025;-61
2022/03/09 11:52:06;;;;;;;8.10;3.53;;;;;;;;;;5053403;28;20040;-61
2022/03/09 11:54:41;;;;;;;7.50;3.75;;;;;;;;;;5053971;28;20032;-60
2022/03/09 11:57:08;;;;;;;6.60;3.50;;;;;;;;;;5053639;28;20052;-61
2022/03/09 11:59:34;;;;;;;9.82;3.55;;;;;;;;;;5053651;28;20179;-61
2022/03/09 12:02:09;;;;;;;5.70;3.22;;;;;;;;;;5053610;28;20021;-61
2022/03/09 12:04:51;;;;;;;7.70;3.95;;;;;;;;;;5053612;28;20021;-61
2022/03/09 12:07:35;;;;;;;7.47;3.47;;;;;;;;;;5046782;28;20029;-62
2022/03/09 12:10:04;;;;;;;6.28;3.28;;;;;;;;;;5053574;28;20108;-61
2022/03/09 12:12:31;;;;;;;5.75;3.05;;;;;;;;;;5053507;28;20017;-61
2022/03/09 12:15:03;;;;;;;8.95;3.28;;;;;;;;;;5053604;28;20031;-65
2022/03/09 12:17:29;;;;;;;7.35;3.42;;;;;;;;;;5053111;28;20021;-65
2022/03/09 12:20:23;;;;;;;6.47;3.08;;;;;;;;;;5047074;28;20030;-65
2022/03/09 12:23:01;;;;;;;5.63;2.42;;;;;;;;;;5044578;28;20072;-62
2022/03/09 12:25:41;;;;;;;8.48;2.80;;;;;;;;;;5051192;28;20020;-61
2022/03/09 12:28:29;;;;;;;5.70;3.10;;;;;;;;;;5032876;28;20105;-61
2022/03/09 12:30:56;;;;;;;6.18;3.30;;;;;;;;;;5032603;28;20032;-62
2022/03/09 12:33:28;;;;;;;14.07;3.35;;;;;;;;;;5032173;28;20035;-65
2022/03/09 12:36:05;;;;;;;6.45;3.50;;;;;;;;;;5032552;28;20025;-63
2022/03/09 12:38:40;;;;;;;5.45;2.70;;;;;;;;;;5040921;28;20023;-62
2022/03/09 12:41:07;;;;;;;5.30;2.78;;;;;;;;;;5067556;28;20947;-64
2022/03/09 12:43:48;;;;;;;4.88;2.50;;;;;;;;;;5051854;28;20025;-63
2022/03/09 12:46:15;;;;;;;5.43;2.73;;;;;;;;;;5052422;28;20025;-65
2022/03/09 12:48:41;;;;;;;6.70;3.22;;;;;;;;;;5052413;28;20017;-64
2022/03/09 12:51:08;;;;;;;5.32;2.38;;;;;;;;;;5052349;28;20116;-61
2022/03/09 12:53:34;;;;;;;7.78;3.03;;;;;;;;;;5052259;28;20047;-61
2022/03/09 12:56:19;;;;;;;5.82;2.70;;;;;;;;;;5052058;28;20056;-64
2022/03/09 12:58:46;;;;;;;5.70;2.60;;;;;;;;;;5052335;28;20079;-62
2022/03/09 13:01:15;;;;;;;4.90;2.67;;;;;;;;;;5050607;28;20017;-63
2022/03/09 13:03:42;;;;;;;5.50;2.90;;;;;;;;;;5051165;28;20595;-64
2022/03/09 13:06:22;;;;;;;6.35;2.78;;;;;;;;;;5051905;28;20380;-63
2022/03/09 13:08:48;;;;;;;5.50;2.53;;;;;;;;;;5052168;28;20047;-64
2022/03/09 13:11:26;;;;;;;7.57;2.78;;;;;;;;;;5050591;28;20076;-66
2022/03/09 13:13:53;;;;;;;6.95;3.00;;;;;;;;;;5051955;28;20021;-64
2022/03/09 13:16:21;;;;;;;7.57;3.05;;;;;;;;;;5032486;28;20017;-61
2022/03/09 13:18:47;;;;;;;8.70;2.80;;;;;;;;;;5031984;28;20644;-61
2022/03/09 13:21:13;;;;;;;8.05;2.70;;;;;;;;;;5040573;28;20029;-64
2022/03/09 13:23:43;;;;;;;5.68;2.45;;;;;;;;;;5032366;28;20030;-64
2022/03/09 13:26:23;;;;;;;6.38;2.67;;;;;;;;;;5032363;28;20029;-66
2022/03/09 13:28:53;;;;;;;7.15;2.42;;;;;;;;;;5032224;28;20053;-63
2022/03/09 13:31:19;;;;;;;7.60;2.63;;;;;;;;;;5031382;28;20033;-64
2022/03/09 13:33:46;;;;;;;5.22;3.00;;;;;;;;;;5031103;28;20026;-61
2022/03/09 13:36:16;;;;;;;6.00;2.80;;;;;;;;;;5031773;28;20029;-65
2022/03/09 13:38:53;;;;;;;5.82;2.60;;;;;;;;;;5045486;28;20017;-61
2022/03/09 13:41:19;;;;;;;7.35;3.33;;;;;;;;;;5051394;28;20068;-63
2022/03/09 13:43:45;;;;;;;5.40;2.55;;;;;;;;;;5051442;28;20032;-62
2022/03/09 13:46:18;;;;;;;6.72;2.60;;;;;;;;;;5051338;28;20025;-64
2022/03/09 13:48:44;;;;;;;7.72;3.05;;;;;;;;;;5032078;28;20025;-61
2022/03/09 13:51:11;;;;;;;8.45;3.60;;;;;;;;;;5047449;28;20030;-61
2022/03/09 13:53:42;;;;;;;10.35;3.78;;;;;;;;;;5031761;28;20044;-61
2022/03/09 13:56:18;;;;;;;11.02;3.88;;;;;;;;;;5031774;28;20026;-62
2022/03/09 13:58:44;;;;;;;12.43;3.80;;;;;;;;;;5047043;28;20037;-61
2022/03/09 14:01:12;;;;;;;10.20;3.50;;;;;;;;;;5031284;28;20473;-64
2022/03/09 14:03:42;;;;;;;7.82;3.17;;;;;;;;;;5036446;28;20052;-64
2022/03/09 14:06:15;;;;;;;7.55;2.53;;;;;;;;;;5066625;28;20052;-62
2022/03/09 14:08:42;;;;;;;10.82;3.35;;;;;;;;;;5052345;28;20029;-64
2022/03/09 14:11:13;;;;;;;9.95;3.15;;;;;;;;;;5031409;28;20140;-64
2022/03/09 14:13:59;;;;;;;9.73;3.83;;;;;;;;;;5032085;28;20043;-63
2022/03/09 14:16:45;;;;;;;8.60;3.22;;;;;;;;;;5028217;28;20064;-64
2022/03/09 14:19:16;;;;;;;9.43;3.20;;;;;;;;;;5036680;28;20030;-64
2022/03/09 14:21:44;;;;;;;8.88;3.30;;;;;;;;;;5055075;28;20108;-64
2022/03/09 14:24:10;;;;;;;7.45;3.10;;;;;;;;;;5045121;28;20512;-64
2022/03/09 14:26:43;;;;;;;7.80;3.47;;;;;;;;;;5034964;28;20504;-61
2022/03/09 14:29:10;;;;;;;6.93;2.67;;;;;;;;;;5034569;28;20073;-64
2022/03/09 14:31:36;;;;;;;8.68;2.88;;;;;;;;;;5034855;28;20033;-63
2022/03/09 14:34:02;;;;;;;9.23;3.03;;;;;;;;;;5034832;28;20020;-62
2022/03/09 14:36:28;;;;;;;8.52;2.50;;;;;;;;;;5035955;28;20075;-61
2022/03/09 14:38:55;;;;;;;10.82;3.25;;;;;;;;;;5050678;28;20017;-66
2022/03/09 14:41:21;;;;;;;7.47;3.03;;;;;;;;;;5035137;28;20041;-66
2022/03/09 14:43:48;;;;;;;7.53;2.67;;;;;;;;;;5035188;28;20025;-62
2022/03/09 14:46:16;;;;;;;7.70;2.70;;;;;;;;;;5035622;28;20029;-64